Time;durP1;ratioP1;P1;durP2;ratioP2;P2;SDS_P1;SDS_P2;PMS_P1;PMS_P2;Temp;Humidity;BMP_temperature;BMP_pressure;BME280_temperature;BME280_humidity;BME280_pressure;Samples;Min_cycle;Max_cycle;Signal;HPM_P1;HPM_P2
2022/01/17 00:00:52;;;;;;;10.48;1.30;;;;;;;;;;5069980;28;20278;-77
2022/01/17 00:03:18;;;;;;;14.50;1.70;;;;;;;;;;5070551;28;20471;-77
2022/01/17 00:05:44;;;;;;;7.82;1.85;;;;;;;;;;5069830;28;20412;-77
2022/01/17 00:08:10;;;;;;;16.60;2.10;;;;;;;;;;5070317;28;20041;-76
2022/01/17 00:10:36;;;;;;;17.20;1.60;;;;;;;;;;5070430;28;20515;-77
2022/01/17 00:13:03;;;;;;;14.73;1.88;;;;;;;;;;5069366;28;20127;-76
2022/01/17 00:15:41;;;;;;;12.90;1.52;;;;;;;;;;5070046;28;20040;-77
2022/01/17 00:20:40;;;;;;;14.18;1.50;;;;;;;;;;5070384;28;20094;-77
2022/01/17 00:23:06;;;;;;;8.90;1.77;;;;;;;;;;5052803;28;20082;-77
2022/01/17 00:25:33;;;;;;;12.57;1.92;;;;;;;;;;5069499;28;20416;-77
2022/01/17 00:27:59;;;;;;;15.05;2.45;;;;;;;;;;5069551;28;20049;-77
2022/01/17 00:30:25;;;;;;;12.65;1.60;;;;;;;;;;5070994;28;20409;-77
2022/01/17 00:32:51;;;;;;;12.30;1.40;;;;;;;;;;5069264;28;20070;-78
2022/01/17 00:35:17;;;;;;;13.18;1.70;;;;;;;;;;5053210;28;20128;-77
2022/01/17 00:37:43;;;;;;;12.27;1.63;;;;;;;;;;5069243;28;20036;-77
2022/01/17 00:40:10;;;;;;;11.73;1.40;;;;;;;;;;5053180;28;20528;-77
2022/01/17 00:42:36;;;;;;;17.83;1.73;;;;;;;;;;5070567;28;20056;-77
2022/01/17 00:45:04;;;;;;;18.63;2.15;;;;;;;;;;5052437;28;20055;-77
2022/01/17 00:47:30;;;;;;;12.75;1.48;;;;;;;;;;5052893;28;20060;-77
2022/01/17 00:49:56;;;;;;;11.98;1.40;;;;;;;;;;5068985;28;20040;-77
2022/01/17 00:52:22;;;;;;;8.43;1.30;;;;;;;;;;5052675;28;20045;-77
2022/01/17 00:54:48;;;;;;;13.93;1.42;;;;;;;;;;5068548;28;20528;-77
2022/01/17 00:57:14;;;;;;;11.50;1.80;;;;;;;;;;5052510;28;20057;-77
2022/01/17 00:59:40;;;;;;;17.30;2.38;;;;;;;;;;5069196;28;20049;-77
2022/01/17 01:02:06;;;;;;;14.20;2.38;;;;;;;;;;5052147;28;20542;-77
2022/01/17 01:04:32;;;;;;;14.73;1.65;;;;;;;;;;5068914;28;20040;-76
2022/01/17 01:06:59;;;;;;;14.27;1.70;;;;;;;;;;5069050;28;20480;-76
2022/01/17 01:09:28;;;;;;;14.88;2.38;;;;;;;;;;5069068;28;20036;-76
2022/01/17 01:11:54;;;;;;;13.02;2.17;;;;;;;;;;5068571;28;20416;-76
2022/01/17 01:14:20;;;;;;;17.70;2.50;;;;;;;;;;5068844;28;20044;-76
2022/01/17 01:16:46;;;;;;;11.38;1.73;;;;;;;;;;5068523;28;20036;-77
2022/01/17 01:29:46;;;;;;;10.68;1.60;;;;;;;;;;5068664;28;20060;-76
2022/01/17 01:32:14;;;;;;;14.85;1.73;;;;;;;;;;5068862;28;20055;-76
2022/01/17 01:34:45;;;;;;;11.80;1.55;;;;;;;;;;5068348;28;20048;-76
2022/01/17 01:37:12;;;;;;;20.10;2.38;;;;;;;;;;5068562;28;20041;-76
2022/01/17 01:39:38;;;;;;;18.88;2.17;;;;;;;;;;5051168;28;20037;-77
2022/01/17 01:42:05;;;;;;;16.73;1.55;;;;;;;;;;5067996;28;20036;-77
2022/01/17 01:44:32;;;;;;;16.63;2.30;;;;;;;;;;5068056;28;20044;-76
2022/01/17 01:46:59;;;;;;;12.57;1.92;;;;;;;;;;5051553;28;20098;-77
2022/01/17 01:49:25;;;;;;;20.95;2.00;;;;;;;;;;5051513;28;20047;-76
2022/01/17 01:51:52;;;;;;;15.63;2.00;;;;;;;;;;5051474;28;20391;-77
2022/01/17 01:54:18;;;;;;;13.77;2.00;;;;;;;;;;5051320;28;20041;-77
2022/01/17 01:56:46;;;;;;;12.88;1.90;;;;;;;;;;5068820;28;20049;-77
2022/01/17 01:59:12;;;;;;;13.52;2.63;;;;;;;;;;5047820;28;20099;-76
2022/01/17 02:01:38;;;;;;;17.45;2.17;;;;;;;;;;5065016;28;20098;-76
2022/01/17 02:04:04;;;;;;;19.95;2.20;;;;;;;;;;5047325;28;20111;-76
2022/01/17 02:06:34;;;;;;;16.20;1.90;;;;;;;;;;5047424;28;20630;-77
2022/01/17 02:09:05;;;;;;;21.92;2.33;;;;;;;;;;5047661;28;20045;-77
2022/01/17 02:11:31;;;;;;;16.92;2.17;;;;;;;;;;5048299;28;20045;-77
2022/01/17 02:13:57;;;;;;;12.10;1.55;;;;;;;;;;5047298;28;20033;-77
2022/01/17 02:16:24;;;;;;;16.38;1.70;;;;;;;;;;5047981;28;20401;-76
2022/01/17 02:18:50;;;;;;;11.93;1.73;;;;;;;;;;5047160;28;20123;-77
2022/01/17 02:23:44;;;;;;;20.70;1.77;;;;;;;;;;5047729;28;20048;-77
2022/01/17 02:26:11;;;;;;;14.05;1.90;;;;;;;;;;5048906;28;20041;-77
2022/01/17 02:28:39;;;;;;;20.00;2.92;;;;;;;;;;5048194;28;20496;-77
2022/01/17 02:31:06;;;;;;;16.90;1.70;;;;;;;;;;5053016;28;20400;-77
2022/01/17 02:33:35;;;;;;;12.82;1.80;;;;;;;;;;5067713;28;20079;-77
2022/01/17 02:36:02;;;;;;;13.07;1.77;;;;;;;;;;5050805;28;20047;-77
2022/01/17 02:38:28;;;;;;;16.15;1.77;;;;;;;;;;5068131;28;20044;-76
2022/01/17 02:40:54;;;;;;;18.35;2.50;;;;;;;;;;5067286;28;20036;-77
2022/01/17 02:43:22;;;;;;;13.57;1.48;;;;;;;;;;5067623;28;20173;-77
2022/01/17 02:48:18;;;;;;;20.63;2.38;;;;;;;;;;5067780;28;20071;-77
2022/01/17 02:50:44;;;;;;;19.70;1.63;;;;;;;;;;5067843;28;20041;-76
2022/01/17 02:53:12;;;;;;;17.05;1.92;;;;;;;;;;5067369;28;20392;-77
2022/01/17 02:55:40;;;;;;;14.95;2.38;;;;;;;;;;5067590;28;20499;-76
2022/01/17 02:58:06;;;;;;;14.52;1.92;;;;;;;;;;5068230;28;20051;-77
2022/01/17 03:00:32;;;;;;;14.30;1.77;;;;;;;;;;5067185;28;20127;-76
2022/01/17 03:02:58;;;;;;;13.38;2.00;;;;;;;;;;5064722;28;20041;-77
2022/01/17 03:05:25;;;;;;;15.98;1.67;;;;;;;;;;5067932;28;20082;-77
2022/01/17 03:07:51;;;;;;;14.80;1.88;;;;;;;;;;5066629;28;20045;-76
2022/01/17 03:13:07;;;;;;;16.33;2.05;;;;;;;;;;5067038;28;20131;-76
2022/01/17 03:15:33;;;;;;;19.92;2.10;;;;;;;;;;5067215;28;20563;-77
2022/01/17 03:17:59;;;;;;;17.50;2.03;;;;;;;;;;5051705;28;20068;-76
2022/01/17 03:20:26;;;;;;;12.27;1.92;;;;;;;;;;5054663;28;20494;-76
2022/01/17 03:22:52;;;;;;;10.63;1.55;;;;;;;;;;5071043;28;20404;-77
2022/01/17 03:25:18;;;;;;;18.33;1.80;;;;;;;;;;5070666;28;20125;-77
2022/01/17 03:27:44;;;;;;;14.57;2.05;;;;;;;;;;5054374;28;20055;-76
2022/01/17 03:30:10;;;;;;;14.27;1.83;;;;;;;;;;5069985;28;20048;-77
2022/01/17 03:32:36;;;;;;;16.02;2.10;;;;;;;;;;5072510;28;20044;-77
2022/01/17 03:35:03;;;;;;;20.15;2.38;;;;;;;;;;5104853;28;20384;-77
2022/01/17 03:37:29;;;;;;;13.60;1.58;;;;;;;;;;5072414;28;20036;-77
2022/01/17 03:39:55;;;;;;;15.80;1.60;;;;;;;;;;5070382;28;20040;-77
2022/01/17 03:42:23;;;;;;;16.65;1.95;;;;;;;;;;5054011;28;20050;-76
2022/01/17 03:44:49;;;;;;;14.48;1.75;;;;;;;;;;5070107;28;20052;-77
2022/01/17 03:47:16;;;;;;;12.35;2.15;;;;;;;;;;5053838;28;20063;-76
2022/01/17 03:49:42;;;;;;;15.00;2.05;;;;;;;;;;5070896;28;20051;-77
2022/01/17 03:52:08;;;;;;;16.42;1.52;;;;;;;;;;5069952;28;20361;-77
2022/01/17 03:54:34;;;;;;;11.80;2.45;;;;;;;;;;5070818;28;20518;-77
2022/01/17 03:57:01;;;;;;;11.52;1.80;;;;;;;;;;5069468;28;20052;-77
2022/01/17 03:59:27;;;;;;;12.50;1.30;;;;;;;;;;5070411;28;20040;-76
2022/01/17 04:01:53;;;;;;;16.52;1.65;;;;;;;;;;5053790;28;20531;-77
2022/01/17 04:04:19;;;;;;;11.82;1.85;;;;;;;;;;5070477;28;20037;-76
2022/01/17 04:06:45;;;;;;;14.93;1.60;;;;;;;;;;5070099;28;20036;-77
2022/01/17 04:09:12;;;;;;;14.07;1.70;;;;;;;;;;5069851;28;20127;-77
2022/01/17 04:11:38;;;;;;;7.90;1.88;;;;;;;;;;5070197;28;20300;-77
2022/01/17 04:14:09;;;;;;;13.10;1.85;;;;;;;;;;5069958;28;20041;-77
2022/01/17 04:16:35;;;;;;;12.27;1.60;;;;;;;;;;5070385;28;20064;-77
2022/01/17 04:19:02;;;;;;;17.67;2.08;;;;;;;;;;5069879;28;20059;-77
2022/01/17 04:21:33;;;;;;;13.35;1.55;;;;;;;;;;5069963;28;20047;-77
2022/01/17 04:23:59;;;;;;;20.00;1.75;;;;;;;;;;5069418;28;20045;-77
2022/01/17 04:26:25;;;;;;;20.77;2.17;;;;;;;;;;5069541;28;20048;-77
2022/01/17 04:28:51;;;;;;;19.05;2.10;;;;;;;;;;5069089;28;20036;-77
2022/01/17 04:31:17;;;;;;;17.05;2.05;;;;;;;;;;5069013;28;20122;-77
2022/01/17 04:33:43;;;;;;;14.27;1.73;;;;;;;;;;5069784;28;20080;-77
2022/01/17 04:36:10;;;;;;;13.93;2.05;;;;;;;;;;5069383;28;20037;-77
2022/01/17 04:38:36;;;;;;;16.40;1.75;;;;;;;;;;5069833;28;20131;-77
2022/01/17 04:41:11;;;;;;;16.92;2.22;;;;;;;;;;5052338;28;20037;-77
2022/01/17 04:46:04;;;;;;;16.60;1.85;;;;;;;;;;5068860;28;20087;-77
2022/01/17 04:48:31;;;;;;;14.52;1.80;;;;;;;;;;5069654;28;20055;-76
2022/01/17 04:50:58;;;;;;;16.55;2.97;;;;;;;;;;5068989;28;20044;-76
2022/01/17 04:53:25;;;;;;;16.23;2.05;;;;;;;;;;5052298;28;20048;-77
2022/01/17 04:55:51;;;;;;;13.07;2.95;;;;;;;;;;5070028;28;20049;-77
2022/01/17 04:58:18;;;;;;;17.35;2.85;;;;;;;;;;5069296;28;20084;-77
2022/01/17 05:00:47;;;;;;;16.77;2.10;;;;;;;;;;5050885;28;20079;-77
2022/01/17 05:03:18;;;;;;;26.50;3.03;;;;;;;;;;5049004;28;20047;-77
2022/01/17 05:05:44;;;;;;;21.50;2.97;;;;;;;;;;5069115;28;20071;-77
2022/01/17 05:08:10;;;;;;;16.40;2.83;;;;;;;;;;5068267;28;20044;-77
2022/01/17 05:10:37;;;;;;;13.88;2.30;;;;;;;;;;5069244;28;20037;-77
2022/01/17 05:13:03;;;;;;;17.42;2.58;;;;;;;;;;5068875;28;20087;-78
2022/01/17 05:15:34;;;;;;;15.68;2.60;;;;;;;;;;5070126;28;20040;-77
2022/01/17 05:20:44;;;;;;;16.75;2.75;;;;;;;;;;5069027;28;20094;-77
2022/01/17 05:23:10;;;;;;;12.25;2.67;;;;;;;;;;5068615;28;20040;-77
2022/01/17 05:25:37;;;;;;;17.88;3.00;;;;;;;;;;5068901;28;20044;-77
2022/01/17 05:28:03;;;;;;;15.52;2.85;;;;;;;;;;5068523;28;20535;-77
2022/01/17 05:30:29;;;;;;;12.77;3.00;;;;;;;;;;5068661;28;20481;-77
2022/01/17 05:32:58;;;;;;;17.92;3.25;;;;;;;;;;5067736;28;20048;-77
2022/01/17 05:35:25;;;;;;;19.05;4.15;;;;;;;;;;5068853;28;20048;-77
2022/01/17 05:37:51;;;;;;;25.90;4.05;;;;;;;;;;5068346;28;20044;-77
2022/01/17 05:40:17;;;;;;;21.65;4.68;;;;;;;;;;5068723;28;20434;-77
2022/01/17 05:42:44;;;;;;;21.48;4.80;;;;;;;;;;5068631;28;20040;-77
2022/01/17 05:45:11;;;;;;;20.85;5.45;;;;;;;;;;5069474;28;20476;-77
2022/01/17 05:47:37;;;;;;;17.13;4.85;;;;;;;;;;5068174;28;20377;-77
2022/01/17 05:50:04;;;;;;;23.40;5.43;;;;;;;;;;5068136;28;20124;-77
2022/01/17 05:52:31;;;;;;;18.77;5.63;;;;;;;;;;5068350;28;20048;-77
2022/01/17 05:54:57;;;;;;;24.17;5.90;;;;;;;;;;5067807;28;20121;-77
2022/01/17 05:57:23;;;;;;;23.98;6.60;;;;;;;;;;5051346;28;20094;-77
2022/01/17 05:59:53;;;;;;;24.33;6.53;;;;;;;;;;5067858;28;20065;-77
2022/01/17 06:02:19;;;;;;;21.35;6.60;;;;;;;;;;5067702;28;20060;-77
2022/01/17 06:04:45;;;;;;;24.27;7.25;;;;;;;;;;5068340;28;20138;-77
2022/01/17 06:07:11;;;;;;;22.33;7.57;;;;;;;;;;5067845;28;20163;-77
2022/01/17 06:09:37;;;;;;;25.58;7.03;;;;;;;;;;5051619;28;20119;-77
2022/01/17 06:12:04;;;;;;;22.55;6.85;;;;;;;;;;5066918;28;20123;-77
2022/01/17 06:14:31;;;;;;;21.92;7.90;;;;;;;;;;5051481;28;20048;-77
2022/01/17 06:16:57;;;;;;;25.50;8.13;;;;;;;;;;5067512;28;20549;-77
2022/01/17 06:19:23;;;;;;;26.13;7.55;;;;;;;;;;5051294;28;20146;-77
2022/01/17 06:21:49;;;;;;;30.38;7.63;;;;;;;;;;5051102;28;20040;-77
2022/01/17 06:24:16;;;;;;;23.65;7.75;;;;;;;;;;5051494;28;20495;-77
2022/01/17 06:26:42;;;;;;;22.10;7.38;;;;;;;;;;5068018;28;20056;-76
2022/01/17 06:29:11;;;;;;;32.90;8.27;;;;;;;;;;5050765;28;20434;-76
2022/01/17 06:31:37;;;;;;;26.67;7.10;;;;;;;;;;5067644;28;20041;-77
2022/01/17 06:34:03;;;;;;;26.27;8.18;;;;;;;;;;5067137;28;20095;-77
2022/01/17 06:36:30;;;;;;;23.52;6.93;;;;;;;;;;5069031;28;20044;-77
2022/01/17 06:38:56;;;;;;;25.80;7.85;;;;;;;;;;5067243;28;20039;-77
2022/01/17 06:41:22;;;;;;;24.63;7.30;;;;;;;;;;5068512;28;20040;-76
2022/01/17 06:43:48;;;;;;;29.90;7.18;;;;;;;;;;5067989;28;20070;-77
2022/01/17 06:46:15;;;;;;;29.73;8.13;;;;;;;;;;5067404;28;20127;-77
2022/01/17 06:48:41;;;;;;;20.13;6.85;;;;;;;;;;5067855;28;20072;-76
2022/01/17 06:51:07;;;;;;;27.92;7.05;;;;;;;;;;5067550;28;20044;-76
2022/01/17 06:53:33;;;;;;;23.20;6.60;;;;;;;;;;5069760;28;20583;-76
2022/01/17 06:56:00;;;;;;;24.90;7.15;;;;;;;;;;5054333;28;20067;-76
2022/01/17 06:58:26;;;;;;;29.30;6.70;;;;;;;;;;5054913;28;20441;-76
2022/01/17 07:00:53;;;;;;;27.02;6.60;;;;;;;;;;5071030;28;20040;-77
2022/01/17 07:03:19;;;;;;;24.55;7.18;;;;;;;;;;5071345;28;20128;-77
2022/01/17 07:05:45;;;;;;;24.48;6.75;;;;;;;;;;5071345;28;20037;-76
2022/01/17 07:08:11;;;;;;;29.88;7.40;;;;;;;;;;5070952;28;20503;-77
2022/01/17 07:10:37;;;;;;;27.48;6.28;;;;;;;;;;5071427;28;20621;-77
2022/01/17 07:13:03;;;;;;;31.48;6.80;;;;;;;;;;5070355;28;20056;-78
2022/01/17 07:15:29;;;;;;;25.13;5.78;;;;;;;;;;5070928;28;20048;-77
2022/01/17 07:17:55;;;;;;;25.27;5.90;;;;;;;;;;5071044;28;20561;-78
2022/01/17 07:20:22;;;;;;;24.45;5.43;;;;;;;;;;5071009;28;20128;-78
2022/01/17 07:22:48;;;;;;;21.15;5.55;;;;;;;;;;5071630;28;20068;-77
2022/01/17 07:25:14;;;;;;;26.88;5.85;;;;;;;;;;5070882;28;20369;-77
2022/01/17 07:27:42;;;;;;;24.17;5.30;;;;;;;;;;5071179;28;20062;-77
2022/01/17 07:30:09;;;;;;;18.60;4.53;;;;;;;;;;5037834;28;20162;-77
2022/01/17 07:32:35;;;;;;;25.50;4.97;;;;;;;;;;5054453;28;20044;-77
2022/01/17 07:35:02;;;;;;;24.90;5.13;;;;;;;;;;5070411;28;20039;-77
2022/01/17 07:37:28;;;;;;;26.42;5.13;;;;;;;;;;5071138;28;20095;-77
2022/01/17 07:39:54;;;;;;;32.53;5.35;;;;;;;;;;5053966;28;20480;-77
2022/01/17 07:42:20;;;;;;;29.90;3.90;;;;;;;;;;5070510;28;20474;-77
2022/01/17 07:44:53;;;;;;;23.25;3.90;;;;;;;;;;5070643;28;20056;-77
2022/01/17 07:47:27;;;;;;;24.67;4.30;;;;;;;;;;5070632;28;20044;-77
2022/01/17 07:49:53;;;;;;;26.40;4.03;;;;;;;;;;5069984;28;20052;-77
2022/01/17 07:52:19;;;;;;;23.35;4.20;;;;;;;;;;5070650;28;20093;-77
2022/01/17 07:54:47;;;;;;;33.50;4.28;;;;;;;;;;5070542;28;20551;-77
2022/01/17 07:57:14;;;;;;;22.17;3.90;;;;;;;;;;5069863;28;20060;-77
2022/01/17 07:59:40;;;;;;;27.75;4.05;;;;;;;;;;5070671;28;20465;-77
2022/01/17 08:02:07;;;;;;;24.60;3.67;;;;;;;;;;5070103;28;20040;-77
2022/01/17 08:04:33;;;;;;;31.00;4.35;;;;;;;;;;5069018;28;20046;-77
2022/01/17 08:06:59;;;;;;;28.10;3.58;;;;;;;;;;5069936;28;20036;-77
2022/01/17 08:09:29;;;;;;;22.88;3.92;;;;;;;;;;5103903;28;20040;-77
2022/01/17 08:11:55;;;;;;;20.08;3.28;;;;;;;;;;5070086;28;20480;-77
2022/01/17 08:14:23;;;;;;;22.55;3.60;;;;;;;;;;5070013;28;20048;-77
2022/01/17 08:16:49;;;;;;;30.25;3.75;;;;;;;;;;5070436;28;20044;-77
2022/01/17 08:19:15;;;;;;;26.85;3.90;;;;;;;;;;5053142;28;20033;-77
2022/01/17 08:21:41;;;;;;;22.98;3.50;;;;;;;;;;5069313;28;20076;-77
2022/01/17 08:24:07;;;;;;;27.95;3.75;;;;;;;;;;5052481;28;20048;-77
2022/01/17 08:26:34;;;;;;;27.90;3.65;;;;;;;;;;5070159;28;20532;-77
2022/01/17 08:29:00;;;;;;;27.80;4.22;;;;;;;;;;5069356;28;20071;-77
2022/01/17 08:31:26;;;;;;;25.33;3.85;;;;;;;;;;5070089;28;20045;-77
2022/01/17 08:33:52;;;;;;;21.70;3.80;;;;;;;;;;5052891;28;20048;-77
2022/01/17 08:36:20;;;;;;;26.85;3.30;;;;;;;;;;5069669;28;20041;-77
2022/01/17 08:38:47;;;;;;;22.25;2.85;;;;;;;;;;5069939;28;20120;-77
2022/01/17 08:41:13;;;;;;;29.40;3.42;;;;;;;;;;5052428;28;20222;-77
2022/01/17 08:43:39;;;;;;;28.80;3.08;;;;;;;;;;5053529;28;20040;-77
2022/01/17 08:46:06;;;;;;;23.42;2.75;;;;;;;;;;5069049;28;20079;-77
2022/01/17 08:48:33;;;;;;;22.17;2.80;;;;;;;;;;5069406;28;20048;-77
2022/01/17 08:50:59;;;;;;;21.33;3.00;;;;;;;;;;5052217;28;20037;-77
2022/01/17 08:53:26;;;;;;;17.90;2.83;;;;;;;;;;5069412;28;20049;-77
2022/01/17 08:55:52;;;;;;;24.75;3.03;;;;;;;;;;5068522;28;20040;-78
2022/01/17 08:58:18;;;;;;;20.58;2.97;;;;;;;;;;5070509;28;20393;-77
2022/01/17 09:00:44;;;;;;;26.65;3.67;;;;;;;;;;5069078;28;20087;-77
2022/01/17 09:03:11;;;;;;;26.08;3.20;;;;;;;;;;5052422;28;20044;-77
2022/01/17 09:05:37;;;;;;;24.90;3.03;;;;;;;;;;5069170;28;20036;-77
2022/01/17 09:08:04;;;;;;;27.52;3.80;;;;;;;;;;5068637;28;20044;-77
2022/01/17 09:10:30;;;;;;;32.90;3.92;;;;;;;;;;5069211;28;20396;-77
2022/01/17 09:12:57;;;;;;;26.75;3.60;;;;;;;;;;5068665;28;20076;-77
2022/01/17 09:15:23;;;;;;;28.92;3.08;;;;;;;;;;5069818;28;20048;-77
2022/01/17 09:17:49;;;;;;;27.70;3.10;;;;;;;;;;5069071;28;20040;-77
2022/01/17 09:20:16;;;;;;;27.75;3.58;;;;;;;;;;5051837;28;20472;-77
2022/01/17 09:22:42;;;;;;;26.50;3.00;;;;;;;;;;5070066;28;20051;-76
2022/01/17 09:25:08;;;;;;;34.58;4.07;;;;;;;;;;5069537;28;20040;-77
2022/01/17 09:27:35;;;;;;;36.38;3.45;;;;;;;;;;5069046;28;20480;-77
2022/01/17 09:30:02;;;;;;;33.63;3.67;;;;;;;;;;5051673;28;20058;-77
2022/01/17 09:32:28;;;;;;;28.80;3.63;;;;;;;;;;5068517;28;20215;-78
2022/01/17 09:34:54;;;;;;;23.45;3.55;;;;;;;;;;5068161;28;20032;-77
2022/01/17 09:37:20;;;;;;;24.40;4.47;;;;;;;;;;5068506;28;20047;-77
2022/01/17 09:39:46;;;;;;;24.60;3.38;;;;;;;;;;5052090;28;20488;-77
2022/01/17 09:42:12;;;;;;;34.38;3.90;;;;;;;;;;5068100;28;20051;-77
2022/01/17 09:44:39;;;;;;;29.85;3.15;;;;;;;;;;5068573;28;20048;-77
2022/01/17 09:47:06;;;;;;;23.25;3.95;;;;;;;;;;5068014;28;20076;-77
2022/01/17 09:49:43;;;;;;;36.78;3.53;;;;;;;;;;5068317;28;20086;-77
2022/01/17 09:55:22;;;;;;;27.02;3.45;;;;;;;;;;5067968;28;20071;-78
2022/01/17 09:57:53;;;;;;;28.58;3.65;;;;;;;;;;5051199;28;20052;-77
2022/01/17 10:00:24;;;;;;;25.88;3.20;;;;;;;;;;5068203;28;20033;-77
2022/01/17 10:02:50;;;;;;;29.27;3.63;;;;;;;;;;5067979;28;20048;-77
2022/01/17 10:05:16;;;;;;;29.30;3.70;;;;;;;;;;5051626;28;20087;-77
2022/01/17 10:07:53;;;;;;;29.23;3.92;;;;;;;;;;5068258;28;20049;-78
2022/01/17 10:10:35;;;;;;;29.15;4.30;;;;;;;;;;5068067;28;20044;-77
2022/01/17 10:13:12;;;;;;;22.75;3.55;;;;;;;;;;5067755;28;20117;-77
2022/01/17 10:15:46;;;;;;;29.15;3.88;;;;;;;;;;5068361;28;20040;-78
2022/01/17 10:18:23;;;;;;;29.98;4.25;;;;;;;;;;5067771;28;20044;-77
2022/01/17 10:20:55;;;;;;;25.05;3.97;;;;;;;;;;5051169;28;20048;-77
2022/01/17 10:23:40;;;;;;;23.75;3.17;;;;;;;;;;5051246;28;20048;-77
2022/01/17 10:26:15;;;;;;;30.70;3.67;;;;;;;;;;5067779;28;20037;-77
2022/01/17 10:29:09;;;;;;;32.90;4.80;;;;;;;;;;5050865;28;20040;-77
2022/01/17 10:37:09;;;;;;;25.38;3.58;;;;;;;;;;5067733;28;20519;-78
2022/01/17 10:39:37;;;;;;;28.02;3.50;;;;;;;;;;5067870;28;20083;-77
2022/01/17 10:42:23;;;;;;;31.88;4.05;;;;;;;;;;5067697;28;20044;-77
2022/01/17 10:44:49;;;;;;;27.40;3.75;;;;;;;;;;5067775;28;20321;-77
2022/01/17 10:47:22;;;;;;;29.48;4.00;;;;;;;;;;5067441;28;20051;-77
2022/01/17 10:49:54;;;;;;;36.40;4.57;;;;;;;;;;5067521;28;20044;-77
2022/01/17 10:52:34;;;;;;;31.60;3.90;;;;;;;;;;5067833;28;20040;-76
2022/01/17 10:55:01;;;;;;;27.95;3.83;;;;;;;;;;5067410;28;20491;-77
2022/01/17 10:57:27;;;;;;;31.45;3.63;;;;;;;;;;5067404;28;20488;-77
2022/01/17 10:59:53;;;;;;;27.42;4.13;;;;;;;;;;5067291;28;20044;-77
2022/01/17 11:02:24;;;;;;;24.23;3.70;;;;;;;;;;5067616;28;20036;-77
2022/01/17 11:04:50;;;;;;;29.50;4.22;;;;;;;;;;5067604;28;20036;-77
2022/01/17 11:07:16;;;;;;;31.05;4.63;;;;;;;;;;5067303;28;20047;-77
2022/01/17 11:09:43;;;;;;;38.80;5.07;;;;;;;;;;5067526;28;20128;-77
2022/01/17 11:12:11;;;;;;;29.65;3.92;;;;;;;;;;5067165;28;20086;-77
2022/01/17 11:14:37;;;;;;;32.72;5.43;;;;;;;;;;5068047;28;20047;-77
2022/01/17 11:17:38;;;;;;;29.70;4.70;;;;;;;;;;5068370;28;20044;-78
2022/01/17 11:20:07;;;;;;;35.50;5.20;;;;;;;;;;5059796;28;20048;-77
2022/01/17 11:22:52;;;;;;;34.00;5.15;;;;;;;;;;5067935;28;20557;-77
2022/01/17 11:25:20;;;;;;;36.78;5.18;;;;;;;;;;5067260;28;20484;-78
2022/01/17 11:27:46;;;;;;;29.75;4.18;;;;;;;;;;5067763;28;20480;-77
2022/01/17 11:30:14;;;;;;;27.67;3.97;;;;;;;;;;5066798;28;20046;-77
2022/01/17 11:32:40;;;;;;;35.97;5.20;;;;;;;;;;5067070;28;20098;-77
2022/01/17 11:35:07;;;;;;;44.15;5.75;;;;;;;;;;5066845;28;20040;-78
2022/01/17 11:37:35;;;;;;;31.90;4.93;;;;;;;;;;5067443;28;20044;-77
2022/01/17 11:40:01;;;;;;;33.58;4.38;;;;;;;;;;5069416;28;20044;-77
2022/01/17 11:42:28;;;;;;;28.20;4.45;;;;;;;;;;5037597;28;20040;-77
2022/01/17 11:44:54;;;;;;;29.90;4.68;;;;;;;;;;5070296;28;20039;-78
2022/01/17 11:47:50;;;;;;;38.08;5.25;;;;;;;;;;5070324;28;20040;-77
2022/01/17 11:50:28;;;;;;;35.50;5.50;;;;;;;;;;5018099;28;20572;-77
2022/01/17 11:52:55;;;;;;;38.47;5.82;;;;;;;;;;5070087;28;20119;-77
2022/01/17 11:55:42;;;;;;;39.30;5.30;;;;;;;;;;5070175;28;20036;-77
2022/01/17 11:58:27;;;;;;;26.70;4.30;;;;;;;;;;5069840;28;20056;-77
2022/01/17 12:00:59;;;;;;;31.08;5.40;;;;;;;;;;5070288;28;20446;-77
2022/01/17 12:03:43;;;;;;;29.92;5.18;;;;;;;;;;5070551;28;20036;-77
2022/01/17 12:06:27;;;;;;;32.10;4.93;;;;;;;;;;5070164;28;20052;-77
2022/01/17 12:09:12;;;;;;;31.00;5.30;;;;;;;;;;5070024;28;20048;-77
2022/01/17 12:11:38;;;;;;;36.92;5.32;;;;;;;;;;5070179;28;20048;-77
2022/01/17 12:14:27;;;;;;;32.65;4.68;;;;;;;;;;5053332;28;20049;-77
2022/01/17 12:16:54;;;;;;;32.83;4.70;;;;;;;;;;5070296;28;20062;-77
2022/01/17 12:19:20;;;;;;;39.88;4.72;;;;;;;;;;5069984;28;20090;-77
2022/01/17 12:21:53;;;;;;;36.45;4.95;;;;;;;;;;5053388;28;20036;-77
2022/01/17 12:24:25;;;;;;;31.67;4.30;;;;;;;;;;5070251;28;20044;-77
2022/01/17 12:26:56;;;;;;;32.50;4.45;;;;;;;;;;5069740;28;20052;-77
2022/01/17 12:29:37;;;;;;;34.50;4.97;;;;;;;;;;5070392;28;20512;-77
2022/01/17 12:32:04;;;;;;;31.83;4.63;;;;;;;;;;5069536;28;20106;-77
2022/01/17 12:34:39;;;;;;;39.95;5.78;;;;;;;;;;5069873;28;20094;-77
2022/01/17 12:37:25;;;;;;;32.90;5.65;;;;;;;;;;5069517;28;20048;-77
2022/01/17 12:39:51;;;;;;;37.70;4.68;;;;;;;;;;5052892;28;20036;-77
2022/01/17 12:42:17;;;;;;;35.58;6.60;;;;;;;;;;5068669;28;20042;-77
2022/01/17 12:44:45;;;;;;;37.78;5.60;;;;;;;;;;5069567;28;20040;-77
2022/01/17 12:47:11;;;;;;;38.65;5.25;;;;;;;;;;5068713;28;20109;-77
2022/01/17 12:49:39;;;;;;;32.90;4.88;;;;;;;;;;5069165;28;20091;-77
2022/01/17 12:52:05;;;;;;;39.42;5.13;;;;;;;;;;5068466;28;20079;-77
2022/01/17 12:54:33;;;;;;;43.47;6.15;;;;;;;;;;5069345;28;20047;-77
2022/01/17 12:57:01;;;;;;;43.20;6.50;;;;;;;;;;5068734;28;20057;-77
2022/01/17 12:59:28;;;;;;;36.55;6.50;;;;;;;;;;5069470;28;20037;-77
2022/01/17 13:01:57;;;;;;;42.42;5.75;;;;;;;;;;5052794;28;20040;-77
2022/01/17 13:04:23;;;;;;;39.85;5.22;;;;;;;;;;5069141;28;20071;-77
2022/01/17 13:06:52;;;;;;;41.53;5.80;;;;;;;;;;5069156;28;20060;-77
2022/01/17 13:09:21;;;;;;;41.67;5.80;;;;;;;;;;5068827;28;20044;-77
2022/01/17 13:11:47;;;;;;;36.08;5.78;;;;;;;;;;5069032;28;20048;-77
2022/01/17 13:14:15;;;;;;;34.65;5.68;;;;;;;;;;5068493;28;20529;-77
2022/01/17 13:16:41;;;;;;;48.53;6.20;;;;;;;;;;5069480;28;20388;-77
2022/01/17 13:19:08;;;;;;;39.92;5.43;;;;;;;;;;5068503;28;20040;-77
2022/01/17 13:21:37;;;;;;;47.03;6.90;;;;;;;;;;5069023;28;20044;-77
2022/01/17 13:24:22;;;;;;;39.05;6.57;;;;;;;;;;5069618;28;20048;-77
2022/01/17 13:26:49;;;;;;;44.95;5.85;;;;;;;;;;5068863;28;20377;-77
2022/01/17 13:29:16;;;;;;;40.42;6.35;;;;;;;;;;5068246;28;20044;-77
2022/01/17 13:31:43;;;;;;;41.17;5.93;;;;;;;;;;5068665;28;20082;-77
2022/01/17 13:34:14;;;;;;;46.33;5.00;;;;;;;;;;5068291;28;20059;-77
2022/01/17 13:36:41;;;;;;;46.95;5.57;;;;;;;;;;5068600;28;20032;-77
2022/01/17 13:39:09;;;;;;;41.33;6.28;;;;;;;;;;5068102;28;20047;-77
2022/01/17 13:41:37;;;;;;;50.17;5.78;;;;;;;;;;5068348;28;20048;-77
2022/01/17 13:44:04;;;;;;;43.78;6.25;;;;;;;;;;5067640;28;20048;-77
2022/01/17 13:46:30;;;;;;;40.55;5.57;;;;;;;;;;5068259;28;20351;-77
2022/01/17 13:48:56;;;;;;;42.55;6.28;;;;;;;;;;5051354;28;20041;-77
2022/01/17 13:51:24;;;;;;;51.90;6.30;;;;;;;;;;5067958;28;20614;-77
2022/01/17 13:53:53;;;;;;;49.80;6.28;;;;;;;;;;5068047;28;20048;-77
2022/01/17 13:56:19;;;;;;;44.05;6.25;;;;;;;;;;5068211;28;20040;-77
2022/01/17 13:58:46;;;;;;;40.05;5.63;;;;;;;;;;5067904;28;20499;-77
2022/01/17 14:01:13;;;;;;;37.80;5.72;;;;;;;;;;5067777;28;20044;-77
2022/01/17 14:03:41;;;;;;;40.28;5.70;;;;;;;;;;5068595;28;20048;-77
2022/01/17 14:06:12;;;;;;;34.33;4.50;;;;;;;;;;5068051;28;20044;-77
2022/01/17 14:08:44;;;;;;;38.28;4.95;;;;;;;;;;5068316;28;20048;-77
2022/01/17 14:11:15;;;;;;;40.42;5.43;;;;;;;;;;5067908;28;20037;-77
2022/01/17 14:13:48;;;;;;;40.97;5.47;;;;;;;;;;5068335;28;20716;-77
2022/01/17 14:16:19;;;;;;;46.47;5.82;;;;;;;;;;5051081;28;20515;-77
2022/01/17 14:19:00;;;;;;;32.75;5.57;;;;;;;;;;5068018;28;20045;-77
2022/01/17 14:21:35;;;;;;;44.95;7.63;;;;;;;;;;5067739;28;20045;-77
2022/01/17 14:24:04;;;;;;;38.17;4.67;;;;;;;;;;5067569;28;20047;-77
2022/01/17 14:26:30;;;;;;;39.88;5.45;;;;;;;;;;5051002;28;20052;-77
2022/01/17 14:28:57;;;;;;;41.45;5.00;;;;;;;;;;5067623;28;20048;-77
2022/01/17 14:31:23;;;;;;;45.47;6.05;;;;;;;;;;5068284;28;20531;-77
2022/01/17 14:33:51;;;;;;;45.30;6.50;;;;;;;;;;5067766;28;20044;-77
2022/01/17 14:36:21;;;;;;;39.63;5.40;;;;;;;;;;5067794;28;20514;-77
2022/01/17 14:38:51;;;;;;;42.22;6.07;;;;;;;;;;5068035;28;20472;-78
2022/01/17 14:41:19;;;;;;;45.53;5.93;;;;;;;;;;5067180;28;20036;-77
2022/01/17 14:43:51;;;;;;;38.95;5.50;;;;;;;;;;5067260;28;20113;-78
2022/01/17 14:46:18;;;;;;;43.70;5.47;;;;;;;;;;5067332;28;20468;-77
2022/01/17 14:48:46;;;;;;;39.65;5.53;;;;;;;;;;5067711;28;20263;-77
2022/01/17 14:51:16;;;;;;;47.60;6.07;;;;;;;;;;5050666;28;20056;-78
2022/01/17 14:53:42;;;;;;;39.80;5.55;;;;;;;;;;5067690;28;20044;-78
2022/01/17 15:02:25;;;;;;;40.67;6.55;;;;;;;;;;5053954;28;20045;-77
2022/01/17 15:04:27;;;;;;;41.20;6.63;;;;;;;;;;5062155;28;20150;-77
2022/01/17 15:06:53;;;;;;;47.47;5.82;;;;;;;;;;5067384;28;20036;-77
2022/01/17 15:09:20;;;;;;;45.65;6.68;;;;;;;;;;5050982;28;20041;-77
2022/01/17 15:11:46;;;;;;;42.97;5.85;;;;;;;;;;5051173;28;20123;-77
2022/01/17 15:14:12;;;;;;;41.28;5.18;;;;;;;;;;5068249;28;20047;-78
2022/01/17 15:16:40;;;;;;;36.03;4.93;;;;;;;;;;5071899;28;20090;-77